sensor_id;sensor_type;location;lat;lon;timestamp;P1;P2;P0
46094;PMS5003;31832;50.746;-2.716;2024-03-08T00:02:04;116;94;
46094;PMS5003;31832;50.746;-2.716;2024-03-08T00:04:29;107;95;
46094;PMS5003;31832;50.746;-2.716;2024-03-08T00:06:55;108;94;
46094;PMS5003;31832;50.746;-2.716;2024-03-08T00:11:45;99;90;
46094;PMS5003;31832;50.746;-2.716;2024-03-08T00:14:11;111;94;
46094;PMS5003;31832;50.746;-2.716;2024-03-08T00:16:36;112;96;
46094;PMS5003;31832;50.746;-2.716;2024-03-08T00:19:01;112;92;
46094;PMS5003;31832;50.746;-2.716;2024-03-08T00:21:27;105;91;
46094;PMS5003;31832;50.746;-2.716;2024-03-08T00:23:52;107;94;
46094;PMS5003;31832;50.746;-2.716;2024-03-08T00:26:17;99;91;
46094;PMS5003;31832;50.746;-2.716;2024-03-08T00:28:42;103;89;
46094;PMS5003;31832;50.746;-2.716;2024-03-08T00:31:07;100;84;
46094;PMS5003;31832;50.746;-2.716;2024-03-08T00:33:33;116;92;
46094;PMS5003;31832;50.746;-2.716;2024-03-08T00:35:59;100;91;
46094;PMS5003;31832;50.746;-2.716;2024-03-08T00:38:24;111;92;
46094;PMS5003;31832;50.746;-2.716;2024-03-08T00:40:49;109;90;
46094;PMS5003;31832;50.746;-2.716;2024-03-08T00:43:14;107;90;
46094;PMS5003;31832;50.746;-2.716;2024-03-08T00:45:39;105;94;
46094;PMS5003;31832;50.746;-2.716;2024-03-08T00:48:05;104;91;
46094;PMS5003;31832;50.746;-2.716;2024-03-08T00:50:30;114;93;
46094;PMS5003;31832;50.746;-2.716;2024-03-08T00:52:56;105;90;
46094;PMS5003;31832;50.746;-2.716;2024-03-08T00:55:22;102;88;
46094;PMS5003;31832;50.746;-2.716;2024-03-08T00:57:47;100;86;
46094;PMS5003;31832;50.746;-2.716;2024-03-08T01:00:12;101;94;
46094;PMS5003;31832;50.746;-2.716;2024-03-08T01:02:38;96;82;
46094;PMS5003;31832;50.746;-2.716;2024-03-08T01:05:03;106;91;
46094;PMS5003;31832;50.746;-2.716;2024-03-08T01:07:29;111;98;
46094;PMS5003;31832;50.746;-2.716;2024-03-08T01:09:54;111;91;
46094;PMS5003;31832;50.746;-2.716;2024-03-08T01:12:19;122;104;
46094;PMS5003;31832;50.746;-2.716;2024-03-08T01:14:45;116;89;
46094;PMS5003;31832;50.746;-2.716;2024-03-08T01:17:10;99;86;
46094;PMS5003;31832;50.746;-2.716;2024-03-08T01:19:36;120;99;
46094;PMS5003;31832;50.746;-2.716;2024-03-08T01:22:01;104;90;
46094;PMS5003;31832;50.746;-2.716;2024-03-08T01:24:27;112;97;
46094;PMS5003;31832;50.746;-2.716;2024-03-08T01:26:52;104;94;
46094;PMS5003;31832;50.746;-2.716;2024-03-08T01:29:18;107;93;
46094;PMS5003;31832;50.746;-2.716;2024-03-08T01:31:43;115;95;
46094;PMS5003;31832;50.746;-2.716;2024-03-08T01:34:09;120;103;
46094;PMS5003;31832;50.746;-2.716;2024-03-08T01:36:34;108;95;
46094;PMS5003;31832;50.746;-2.716;2024-03-08T01:39:00;110;96;
46094;PMS5003;31832;50.746;-2.716;2024-03-08T01:41:26;106;90;
46094;PMS5003;31832;50.746;-2.716;2024-03-08T01:43:52;115;96;
46094;PMS5003;31832;50.746;-2.716;2024-03-08T01:46:17;115;104;
46094;PMS5003;31832;50.746;-2.716;2024-03-08T01:48:42;128;115;
46094;PMS5003;31832;50.746;-2.716;2024-03-08T01:51:07;108;88;
46094;PMS5003;31832;50.746;-2.716;2024-03-08T01:53:32;112;99;
46094;PMS5003;31832;50.746;-2.716;2024-03-08T01:55:58;107;93;
46094;PMS5003;31832;50.746;-2.716;2024-03-08T01:58:24;124;99;
46094;PMS5003;31832;50.746;-2.716;2024-03-08T02:03:14;110;96;
46094;PMS5003;31832;50.746;-2.716;2024-03-08T02:05:40;118;93;
46094;PMS5003;31832;50.746;-2.716;2024-03-08T02:08:05;124;99;
46094;PMS5003;31832;50.746;-2.716;2024-03-08T02:10:30;125;99;
46094;PMS5003;31832;50.746;-2.716;2024-03-08T02:15:21;108;92;
46094;PMS5003;31832;50.746;-2.716;2024-03-08T02:17:46;116;98;
46094;PMS5003;31832;50.746;-2.716;2024-03-08T02:20:12;108;92;
46094;PMS5003;31832;50.746;-2.716;2024-03-08T02:22:37;110;96;
46094;PMS5003;31832;50.746;-2.716;2024-03-08T02:25:03;122;104;
46094;PMS5003;31832;50.746;-2.716;2024-03-08T02:27:28;102;83;
46094;PMS5003;31832;50.746;-2.716;2024-03-08T02:29:54;118;92;
46094;PMS5003;31832;50.746;-2.716;2024-03-08T02:32:18;105;97;
46094;PMS5003;31832;50.746;-2.716;2024-03-08T02:34:44;113;94;
46094;PMS5003;31832;50.746;-2.716;2024-03-08T02:37:09;119;92;
46094;PMS5003;31832;50.746;-2.716;2024-03-08T02:39:35;98;88;
46094;PMS5003;31832;50.746;-2.716;2024-03-08T02:42:00;105;93;
46094;PMS5003;31832;50.746;-2.716;2024-03-08T02:44:25;114;96;
46094;PMS5003;31832;50.746;-2.716;2024-03-08T02:46:51;120;95;
46094;PMS5003;31832;50.746;-2.716;2024-03-08T02:49:16;115;94;
46094;PMS5003;31832;50.746;-2.716;2024-03-08T02:51:42;101;89;
46094;PMS5003;31832;50.746;-2.716;2024-03-08T02:54:07;105;91;
46094;PMS5003;31832;50.746;-2.716;2024-03-08T02:56:32;116;105;
46094;PMS5003;31832;50.746;-2.716;2024-03-08T02:58:58;107;90;
46094;PMS5003;31832;50.746;-2.716;2024-03-08T03:01:23;110;97;
46094;PMS5003;31832;50.746;-2.716;2024-03-08T03:03:49;101;86;
46094;PMS5003;31832;50.746;-2.716;2024-03-08T03:06:15;107;95;
46094;PMS5003;31832;50.746;-2.716;2024-03-08T03:08:40;100;87;
46094;PMS5003;31832;50.746;-2.716;2024-03-08T03:11:06;106;89;
46094;PMS5003;31832;50.746;-2.716;2024-03-08T03:13:31;111;97;
46094;PMS5003;31832;50.746;-2.716;2024-03-08T03:15:56;101;85;
46094;PMS5003;31832;50.746;-2.716;2024-03-08T03:18:22;108;94;
46094;PMS5003;31832;50.746;-2.716;2024-03-08T03:20:47;109;93;
46094;PMS5003;31832;50.746;-2.716;2024-03-08T03:23:13;112;93;
46094;PMS5003;31832;50.746;-2.716;2024-03-08T03:25:39;107;91;
46094;PMS5003;31832;50.746;-2.716;2024-03-08T03:28:05;113;98;
46094;PMS5003;31832;50.746;-2.716;2024-03-08T03:30:30;116;94;
46094;PMS5003;31832;50.746;-2.716;2024-03-08T03:32:56;110;98;
46094;PMS5003;31832;50.746;-2.716;2024-03-08T03:35:21;106;92;
46094;PMS5003;31832;50.746;-2.716;2024-03-08T03:37:46;118;97;
46094;PMS5003;31832;50.746;-2.716;2024-03-08T03:40:12;108;88;
46094;PMS5003;31832;50.746;-2.716;2024-03-08T03:42:38;109;95;
46094;PMS5003;31832;50.746;-2.716;2024-03-08T03:45:03;110;90;
46094;PMS5003;31832;50.746;-2.716;2024-03-08T03:47:28;112;98;
46094;PMS5003;31832;50.746;-2.716;2024-03-08T03:49:54;104;89;
46094;PMS5003;31832;50.746;-2.716;2024-03-08T03:52:19;109;95;
46094;PMS5003;31832;50.746;-2.716;2024-03-08T03:54:45;107;95;
46094;PMS5003;31832;50.746;-2.716;2024-03-08T03:57:11;101;87;
46094;PMS5003;31832;50.746;-2.716;2024-03-08T03:59:36;106;87;
46094;PMS5003;31832;50.746;-2.716;2024-03-08T04:02:01;110;89;
46094;PMS5003;31832;50.746;-2.716;2024-03-08T04:04:27;98;84;
46094;PMS5003;31832;50.746;-2.716;2024-03-08T04:09:17;94;85;
46094;PMS5003;31832;50.746;-2.716;2024-03-08T04:11:43;109;88;
46094;PMS5003;31832;50.746;-2.716;2024-03-08T04:14:08;109;93;
46094;PMS5003;31832;50.746;-2.716;2024-03-08T04:16:33;100;87;
46094;PMS5003;31832;50.746;-2.716;2024-03-08T04:18:59;96;87;
46094;PMS5003;31832;50.746;-2.716;2024-03-08T04:21:24;97;87;
46094;PMS5003;31832;50.746;-2.716;2024-03-08T04:23:50;108;86;
46094;PMS5003;31832;50.746;-2.716;2024-03-08T04:26:15;100;84;
46094;PMS5003;31832;50.746;-2.716;2024-03-08T04:28:41;105;93;
46094;PMS5003;31832;50.746;-2.716;2024-03-08T04:31:06;94;85;
46094;PMS5003;31832;50.746;-2.716;2024-03-08T04:33:31;102;91;
46094;PMS5003;31832;50.746;-2.716;2024-03-08T04:35:56;103;92;
46094;PMS5003;31832;50.746;-2.716;2024-03-08T04:38:22;102;89;
46094;PMS5003;31832;50.746;-2.716;2024-03-08T04:40:48;106;89;
46094;PMS5003;31832;50.746;-2.716;2024-03-08T04:43:13;107;89;
46094;PMS5003;31832;50.746;-2.716;2024-03-08T04:45:38;106;92;
46094;PMS5003;31832;50.746;-2.716;2024-03-08T04:48:04;101;87;
46094;PMS5003;31832;50.746;-2.716;2024-03-08T04:50:29;93;86;
46094;PMS5003;31832;50.746;-2.716;2024-03-08T04:52:55;109;89;
46094;PMS5003;31832;50.746;-2.716;2024-03-08T04:55:21;98;81;
46094;PMS5003;31832;50.746;-2.716;2024-03-08T04:57:46;102;89;
46094;PMS5003;31832;50.746;-2.716;2024-03-08T05:00:13;100;88;
46094;PMS5003;31832;50.746;-2.716;2024-03-08T05:02:37;87;78;
46094;PMS5003;31832;50.746;-2.716;2024-03-08T05:05:03;102;82;
46094;PMS5003;31832;50.746;-2.716;2024-03-08T05:07:28;98;87;
46094;PMS5003;31832;50.746;-2.716;2024-03-08T05:09:54;101;86;
46094;PMS5003;31832;50.746;-2.716;2024-03-08T05:12:19;92;87;
46094;PMS5003;31832;50.746;-2.716;2024-03-08T05:14:45;107;88;
46094;PMS5003;31832;50.746;-2.716;2024-03-08T05:17:11;103;90;
46094;PMS5003;31832;50.746;-2.716;2024-03-08T05:19:36;98;81;
46094;PMS5003;31832;50.746;-2.716;2024-03-08T05:22:01;96;81;
46094;PMS5003;31832;50.746;-2.716;2024-03-08T05:24:27;113;95;
46094;PMS5003;31832;50.746;-2.716;2024-03-08T05:26:52;114;93;
46094;PMS5003;31832;50.746;-2.716;2024-03-08T05:29:18;88;78;
46094;PMS5003;31832;50.746;-2.716;2024-03-08T05:31:45;89;76;
46094;PMS5003;31832;50.746;-2.716;2024-03-08T05:34:08;99;81;
46094;PMS5003;31832;50.746;-2.716;2024-03-08T05:36:33;91;81;
46094;PMS5003;31832;50.746;-2.716;2024-03-08T05:38:59;105;85;
46094;PMS5003;31832;50.746;-2.716;2024-03-08T05:41:24;89;79;
46094;PMS5003;31832;50.746;-2.716;2024-03-08T05:43:49;106;91;
46094;PMS5003;31832;50.746;-2.716;2024-03-08T05:46:15;104;83;
46094;PMS5003;31832;50.746;-2.716;2024-03-08T05:48:40;99;80;
46094;PMS5003;31832;50.746;-2.716;2024-03-08T05:51:06;104;79;
46094;PMS5003;31832;50.746;-2.716;2024-03-08T05:53:32;95;82;
46094;PMS5003;31832;50.746;-2.716;2024-03-08T05:55:57;104;80;
46094;PMS5003;31832;50.746;-2.716;2024-03-08T05:58:22;99;85;
46094;PMS5003;31832;50.746;-2.716;2024-03-08T06:00:48;96;75;
46094;PMS5003;31832;50.746;-2.716;2024-03-08T06:03:13;91;80;
46094;PMS5003;31832;50.746;-2.716;2024-03-08T06:05:39;117;86;
46094;PMS5003;31832;50.746;-2.716;2024-03-08T06:08:05;105;88;
46094;PMS5003;31832;50.746;-2.716;2024-03-08T06:10:29;94;80;
46094;PMS5003;31832;50.746;-2.716;2024-03-08T06:12:55;102;84;
46094;PMS5003;31832;50.746;-2.716;2024-03-08T06:15:20;100;87;
46094;PMS5003;31832;50.746;-2.716;2024-03-08T06:17:46;97;81;
46094;PMS5003;31832;50.746;-2.716;2024-03-08T06:20:12;86;73;
46094;PMS5003;31832;50.746;-2.716;2024-03-08T06:22:37;95;79;
46094;PMS5003;31832;50.746;-2.716;2024-03-08T06:25:02;87;79;
46094;PMS5003;31832;50.746;-2.716;2024-03-08T06:27:27;98;88;
46094;PMS5003;31832;50.746;-2.716;2024-03-08T06:29:53;90;74;
46094;PMS5003;31832;50.746;-2.716;2024-03-08T06:32:19;80;69;
46094;PMS5003;31832;50.746;-2.716;2024-03-08T06:34:44;94;81;
46094;PMS5003;31832;50.746;-2.716;2024-03-08T06:37:09;90;79;
46094;PMS5003;31832;50.746;-2.716;2024-03-08T06:39:34;95;79;
46094;PMS5003;31832;50.746;-2.716;2024-03-08T06:42:00;93;77;
46094;PMS5003;31832;50.746;-2.716;2024-03-08T06:44:26;94;82;
46094;PMS5003;31832;50.746;-2.716;2024-03-08T06:46:51;90;78;
46094;PMS5003;31832;50.746;-2.716;2024-03-08T06:49:18;94;83;
46094;PMS5003;31832;50.746;-2.716;2024-03-08T06:51:42;100;85;
46094;PMS5003;31832;50.746;-2.716;2024-03-08T06:54:08;92;72;
46094;PMS5003;31832;50.746;-2.716;2024-03-08T06:56:33;97;81;
46094;PMS5003;31832;50.746;-2.716;2024-03-08T06:58:58;81;70;
46094;PMS5003;31832;50.746;-2.716;2024-03-08T07:01:24;103;82;
46094;PMS5003;31832;50.746;-2.716;2024-03-08T07:03:49;92;79;
46094;PMS5003;31832;50.746;-2.716;2024-03-08T07:06:15;80;72;
46094;PMS5003;31832;50.746;-2.716;2024-03-08T07:08:40;87;76;
46094;PMS5003;31832;50.746;-2.716;2024-03-08T07:11:05;98;78;
46094;PMS5003;31832;50.746;-2.716;2024-03-08T07:13:30;89;77;
46094;PMS5003;31832;50.746;-2.716;2024-03-08T07:15:55;90;79;
46094;PMS5003;31832;50.746;-2.716;2024-03-08T07:18:21;100;82;
46094;PMS5003;31832;50.746;-2.716;2024-03-08T07:20:46;89;70;
46094;PMS5003;31832;50.746;-2.716;2024-03-08T07:23:12;96;86;
46094;PMS5003;31832;50.746;-2.716;2024-03-08T07:25:37;91;75;
46094;PMS5003;31832;50.746;-2.716;2024-03-08T07:28:03;96;77;
46094;PMS5003;31832;50.746;-2.716;2024-03-08T07:30:28;92;76;
46094;PMS5003;31832;50.746;-2.716;2024-03-08T07:32:53;81;69;
46094;PMS5003;31832;50.746;-2.716;2024-03-08T07:35:19;77;69;
46094;PMS5003;31832;50.746;-2.716;2024-03-08T07:37:45;95;82;
46094;PMS5003;31832;50.746;-2.716;2024-03-08T07:40:10;89;84;
46094;PMS5003;31832;50.746;-2.716;2024-03-08T07:42:36;78;71;
46094;PMS5003;31832;50.746;-2.716;2024-03-08T07:45:02;90;78;
46094;PMS5003;31832;50.746;-2.716;2024-03-08T07:47:27;82;76;
46094;PMS5003;31832;50.746;-2.716;2024-03-08T07:49:52;82;72;
46094;PMS5003;31832;50.746;-2.716;2024-03-08T07:52:17;91;79;
46094;PMS5003;31832;50.746;-2.716;2024-03-08T07:54:42;92;77;
46094;PMS5003;31832;50.746;-2.716;2024-03-08T07:57:07;91;77;
46094;PMS5003;31832;50.746;-2.716;2024-03-08T07:59:32;98;75;
46094;PMS5003;31832;50.746;-2.716;2024-03-08T08:01:58;74;66;
46094;PMS5003;31832;50.746;-2.716;2024-03-08T08:04:23;92;82;
46094;PMS5003;31832;50.746;-2.716;2024-03-08T08:06:49;90;78;
46094;PMS5003;31832;50.746;-2.716;2024-03-08T08:09:15;93;81;
46094;PMS5003;31832;50.746;-2.716;2024-03-08T08:11:40;95;76;
46094;PMS5003;31832;50.746;-2.716;2024-03-08T08:14:05;78;70;
46094;PMS5003;31832;50.746;-2.716;2024-03-08T08:16:30;95;75;
46094;PMS5003;31832;50.746;-2.716;2024-03-08T08:18:56;88;73;
46094;PMS5003;31832;50.746;-2.716;2024-03-08T08:21:21;85;74;
46094;PMS5003;31832;50.746;-2.716;2024-03-08T08:23:47;82;75;
46094;PMS5003;31832;50.746;-2.716;2024-03-08T08:26:13;83;70;
46094;PMS5003;31832;50.746;-2.716;2024-03-08T08:28:39;86;78;
46094;PMS5003;31832;50.746;-2.716;2024-03-08T08:31:04;94;82;
46094;PMS5003;31832;50.746;-2.716;2024-03-08T08:33:30;84;72;
46094;PMS5003;31832;50.746;-2.716;2024-03-08T08:35:56;82;71;
46094;PMS5003;31832;50.746;-2.716;2024-03-08T08:38:21;76;66;
46094;PMS5003;31832;50.746;-2.716;2024-03-08T08:40:47;83;69;
46094;PMS5003;31832;50.746;-2.716;2024-03-08T08:43:13;76;69;
46094;PMS5003;31832;50.746;-2.716;2024-03-08T08:45:38;75;68;
46094;PMS5003;31832;50.746;-2.716;2024-03-08T08:48:04;94;76;
46094;PMS5003;31832;50.746;-2.716;2024-03-08T08:50:29;86;76;
46094;PMS5003;31832;50.746;-2.716;2024-03-08T08:52:55;87;72;
46094;PMS5003;31832;50.746;-2.716;2024-03-08T08:55:20;84;68;
46094;PMS5003;31832;50.746;-2.716;2024-03-08T08:57:46;89;80;
46094;PMS5003;31832;50.746;-2.716;2024-03-08T09:00:12;87;72;
46094;PMS5003;31832;50.746;-2.716;2024-03-08T09:02:37;84;71;
46094;PMS5003;31832;50.746;-2.716;2024-03-08T09:05:02;75;66;
46094;PMS5003;31832;50.746;-2.716;2024-03-08T09:07:28;81;72;
46094;PMS5003;31832;50.746;-2.716;2024-03-08T09:09:53;83;68;
46094;PMS5003;31832;50.746;-2.716;2024-03-08T09:12:18;80;65;
46094;PMS5003;31832;50.746;-2.716;2024-03-08T09:14:44;76;67;
46094;PMS5003;31832;50.746;-2.716;2024-03-08T09:17:10;79;69;
46094;PMS5003;31832;50.746;-2.716;2024-03-08T09:19:35;71;65;
46094;PMS5003;31832;50.746;-2.716;2024-03-08T09:22:00;82;70;
46094;PMS5003;31832;50.746;-2.716;2024-03-08T09:24:26;88;64;
46094;PMS5003;31832;50.746;-2.716;2024-03-08T09:26:51;89;75;
46094;PMS5003;31832;50.746;-2.716;2024-03-08T09:29:16;77;68;
46094;PMS5003;31832;50.746;-2.716;2024-03-08T09:31:42;86;67;
46094;PMS5003;31832;50.746;-2.716;2024-03-08T09:34:07;78;67;
46094;PMS5003;31832;50.746;-2.716;2024-03-08T09:36:33;71;67;
46094;PMS5003;31832;50.746;-2.716;2024-03-08T09:38:58;71;66;
46094;PMS5003;31832;50.746;-2.716;2024-03-08T09:41:23;73;68;
46094;PMS5003;31832;50.746;-2.716;2024-03-08T09:43:48;81;71;
46094;PMS5003;31832;50.746;-2.716;2024-03-08T09:46:14;81;65;
46094;PMS5003;31832;50.746;-2.716;2024-03-08T09:48:39;79;66;
46094;PMS5003;31832;50.746;-2.716;2024-03-08T09:51:04;77;72;
46094;PMS5003;31832;50.746;-2.716;2024-03-08T09:53:29;78;71;
46094;PMS5003;31832;50.746;-2.716;2024-03-08T09:55:55;81;70;
46094;PMS5003;31832;50.746;-2.716;2024-03-08T09:58:20;71;66;
46094;PMS5003;31832;50.746;-2.716;2024-03-08T10:00:46;78;72;
46094;PMS5003;31832;50.746;-2.716;2024-03-08T10:03:11;82;77;
46094;PMS5003;31832;50.746;-2.716;2024-03-08T10:05:37;80;65;
46094;PMS5003;31832;50.746;-2.716;2024-03-08T10:08:03;85;72;
46094;PMS5003;31832;50.746;-2.716;2024-03-08T10:10:27;80;70;
46094;PMS5003;31832;50.746;-2.716;2024-03-08T10:12:53;75;66;
46094;PMS5003;31832;50.746;-2.716;2024-03-08T10:15:19;96;76;
46094;PMS5003;31832;50.746;-2.716;2024-03-08T10:17:44;76;74;
46094;PMS5003;31832;50.746;-2.716;2024-03-08T10:20:13;75;66;
46094;PMS5003;31832;50.746;-2.716;2024-03-08T10:22:35;76;68;
46094;PMS5003;31832;50.746;-2.716;2024-03-08T10:25:01;74;69;
46094;PMS5003;31832;50.746;-2.716;2024-03-08T10:27:26;72;68;
46094;PMS5003;31832;50.746;-2.716;2024-03-08T10:29:52;75;66;
46094;PMS5003;31832;50.746;-2.716;2024-03-08T10:32:17;68;61;
46094;PMS5003;31832;50.746;-2.716;2024-03-08T10:34:43;70;66;
46094;PMS5003;31832;50.746;-2.716;2024-03-08T10:37:09;69;62;
46094;PMS5003;31832;50.746;-2.716;2024-03-08T10:39:34;85;76;
46094;PMS5003;31832;50.746;-2.716;2024-03-08T10:42:01;67;59;
46094;PMS5003;31832;50.746;-2.716;2024-03-08T10:44:32;72;64;
46094;PMS5003;31832;50.746;-2.716;2024-03-08T10:46:54;65;57;
46094;PMS5003;31832;50.746;-2.716;2024-03-08T10:49:16;68;53;
46094;PMS5003;31832;50.746;-2.716;2024-03-08T10:51:41;68;62;
46094;PMS5003;31832;50.746;-2.716;2024-03-08T10:54:06;63;59;
46094;PMS5003;31832;50.746;-2.716;2024-03-08T10:56:31;64;58;
46094;PMS5003;31832;50.746;-2.716;2024-03-08T10:58:57;63;59;
46094;PMS5003;31832;50.746;-2.716;2024-03-08T11:01:22;77;60;
46094;PMS5003;31832;50.746;-2.716;2024-03-08T11:03:48;70;59;
46094;PMS5003;31832;50.746;-2.716;2024-03-08T11:06:15;71;61;
46094;PMS5003;31832;50.746;-2.716;2024-03-08T11:08:38;58;52;
46094;PMS5003;31832;50.746;-2.716;2024-03-08T11:11:03;64;58;
46094;PMS5003;31832;50.746;-2.716;2024-03-08T11:13:32;71;58;
46094;PMS5003;31832;50.746;-2.716;2024-03-08T11:15:54;68;58;
46094;PMS5003;31832;50.746;-2.716;2024-03-08T11:18:20;69;60;
46094;PMS5003;31832;50.746;-2.716;2024-03-08T11:20:45;63;55;
46094;PMS5003;31832;50.746;-2.716;2024-03-08T11:23:11;64;57;
46094;PMS5003;31832;50.746;-2.716;2024-03-08T11:25:36;60;51;
46094;PMS5003;31832;50.746;-2.716;2024-03-08T11:28:07;58;52;
46094;PMS5003;31832;50.746;-2.716;2024-03-08T11:30:26;63;58;
46094;PMS5003;31832;50.746;-2.716;2024-03-08T11:32:52;60;51;
46094;PMS5003;31832;50.746;-2.716;2024-03-08T11:35:18;63;56;
46094;PMS5003;31832;50.746;-2.716;2024-03-08T11:37:43;65;59;
46094;PMS5003;31832;50.746;-2.716;2024-03-08T11:40:11;55;53;
46094;PMS5003;31832;50.746;-2.716;2024-03-08T11:42:35;56;49;
46094;PMS5003;31832;50.746;-2.716;2024-03-08T11:44:59;63;53;
46094;PMS5003;31832;50.746;-2.716;2024-03-08T11:47:25;56;48;
46094;PMS5003;31832;50.746;-2.716;2024-03-08T11:49:49;55;49;
46094;PMS5003;31832;50.746;-2.716;2024-03-08T11:52:15;56;52;
46094;PMS5003;31832;50.746;-2.716;2024-03-08T11:54:40;58;49;
46094;PMS5003;31832;50.746;-2.716;2024-03-08T11:57:06;60;50;
46094;PMS5003;31832;50.746;-2.716;2024-03-08T11:59:31;51;47;
46094;PMS5003;31832;50.746;-2.716;2024-03-08T12:01:58;48;46;
46094;PMS5003;31832;50.746;-2.716;2024-03-08T12:04:22;49;46;
46094;PMS5003;31832;50.746;-2.716;2024-03-08T12:06:47;61;53;
46094;PMS5003;31832;50.746;-2.716;2024-03-08T12:09:13;52;48;
46094;PMS5003;31832;50.746;-2.716;2024-03-08T12:11:38;58;54;
46094;PMS5003;31832;50.746;-2.716;2024-03-08T12:14:05;55;49;
46094;PMS5003;31832;50.746;-2.716;2024-03-08T12:16:29;57;47;
46094;PMS5003;31832;50.746;-2.716;2024-03-08T12:18:54;54;49;
46094;PMS5003;31832;50.746;-2.716;2024-03-08T12:21:19;59;51;
46094;PMS5003;31832;50.746;-2.716;2024-03-08T12:23:44;53;47;
46094;PMS5003;31832;50.746;-2.716;2024-03-08T12:26:11;46;43;
46094;PMS5003;31832;50.746;-2.716;2024-03-08T12:28:36;49;44;
46094;PMS5003;31832;50.746;-2.716;2024-03-08T12:31:01;54;48;
46094;PMS5003;31832;50.746;-2.716;2024-03-08T12:33:27;51;47;
46094;PMS5003;31832;50.746;-2.716;2024-03-08T12:35:53;53;42;
46094;PMS5003;31832;50.746;-2.716;2024-03-08T12:38:19;57;51;
46094;PMS5003;31832;50.746;-2.716;2024-03-08T12:40:44;50;44;
46094;PMS5003;31832;50.746;-2.716;2024-03-08T12:43:09;46;42;
46094;PMS5003;31832;50.746;-2.716;2024-03-08T12:45:35;46;44;
46094;PMS5003;31832;50.746;-2.716;2024-03-08T12:48:00;48;42;
46094;PMS5003;31832;50.746;-2.716;2024-03-08T12:50:25;58;49;
46094;PMS5003;31832;50.746;-2.716;2024-03-08T12:52:50;50;43;
46094;PMS5003;31832;50.746;-2.716;2024-03-08T12:55:16;47;44;
46094;PMS5003;31832;50.746;-2.716;2024-03-08T12:57:41;48;44;
46094;PMS5003;31832;50.746;-2.716;2024-03-08T13:00:07;58;48;
46094;PMS5003;31832;50.746;-2.716;2024-03-08T13:02:32;53;50;
46094;PMS5003;31832;50.746;-2.716;2024-03-08T13:04:57;54;46;
46094;PMS5003;31832;50.746;-2.716;2024-03-08T13:07:23;61;50;
46094;PMS5003;31832;50.746;-2.716;2024-03-08T13:09:48;57;45;
46094;PMS5003;31832;50.746;-2.716;2024-03-08T13:12:14;57;49;
46094;PMS5003;31832;50.746;-2.716;2024-03-08T13:14:40;56;46;
46094;PMS5003;31832;50.746;-2.716;2024-03-08T13:17:05;51;47;
46094;PMS5003;31832;50.746;-2.716;2024-03-08T13:19:30;49;48;
46094;PMS5003;31832;50.746;-2.716;2024-03-08T13:21:56;51;46;
46094;PMS5003;31832;50.746;-2.716;2024-03-08T13:24:22;47;43;
46094;PMS5003;31832;50.746;-2.716;2024-03-08T13:26:47;50;43;
46094;PMS5003;31832;50.746;-2.716;2024-03-08T13:29:13;51;45;
46094;PMS5003;31832;50.746;-2.716;2024-03-08T13:31:38;51;46;
46094;PMS5003;31832;50.746;-2.716;2024-03-08T13:34:04;51;45;
46094;PMS5003;31832;50.746;-2.716;2024-03-08T13:36:29;38;37;
46094;PMS5003;31832;50.746;-2.716;2024-03-08T13:38:55;43;42;
46094;PMS5003;31832;50.746;-2.716;2024-03-08T13:41:20;42;36;
46094;PMS5003;31832;50.746;-2.716;2024-03-08T13:43:47;42;39;
46094;PMS5003;31832;50.746;-2.716;2024-03-08T13:46:12;39;37;
46094;PMS5003;31832;50.746;-2.716;2024-03-08T13:48:37;45;40;
46094;PMS5003;31832;50.746;-2.716;2024-03-08T13:51:03;44;43;
46094;PMS5003;31832;50.746;-2.716;2024-03-08T13:53:28;41;35;
46094;PMS5003;31832;50.746;-2.716;2024-03-08T13:55:53;32;31;
46094;PMS5003;31832;50.746;-2.716;2024-03-08T13:58:19;32;32;
46094;PMS5003;31832;50.746;-2.716;2024-03-08T14:00:44;32;30;
46094;PMS5003;31832;50.746;-2.716;2024-03-08T14:03:10;33;30;
46094;PMS5003;31832;50.746;-2.716;2024-03-08T14:05:38;35;31;
46094;PMS5003;31832;50.746;-2.716;2024-03-08T14:08:01;31;24;
46094;PMS5003;31832;50.746;-2.716;2024-03-08T14:10:26;38;28;
46094;PMS5003;31832;50.746;-2.716;2024-03-08T14:12:52;35;30;
46094;PMS5003;31832;50.746;-2.716;2024-03-08T14:15:17;33;28;
46094;PMS5003;31832;50.746;-2.716;2024-03-08T14:17:43;34;30;
46094;PMS5003;31832;50.746;-2.716;2024-03-08T14:20:08;33;27;
46094;PMS5003;31832;50.746;-2.716;2024-03-08T14:22:33;27;27;
46094;PMS5003;31832;50.746;-2.716;2024-03-08T14:24:59;34;30;
46094;PMS5003;31832;50.746;-2.716;2024-03-08T14:27:24;27;25;
46094;PMS5003;31832;50.746;-2.716;2024-03-08T14:29:50;36;31;
46094;PMS5003;31832;50.746;-2.716;2024-03-08T14:32:15;28;27;
46094;PMS5003;31832;50.746;-2.716;2024-03-08T14:34:40;31;28;
46094;PMS5003;31832;50.746;-2.716;2024-03-08T14:37:05;25;22;
46094;PMS5003;31832;50.746;-2.716;2024-03-08T14:39:31;27;27;
46094;PMS5003;31832;50.746;-2.716;2024-03-08T14:41:56;26;25;
46094;PMS5003;31832;50.746;-2.716;2024-03-08T14:44:22;28;23;
46094;PMS5003;31832;50.746;-2.716;2024-03-08T14:46:47;25;22;
46094;PMS5003;31832;50.746;-2.716;2024-03-08T14:49:13;31;26;
46094;PMS5003;31832;50.746;-2.716;2024-03-08T14:51:38;33;26;
46094;PMS5003;31832;50.746;-2.716;2024-03-08T14:54:03;24;23;
46094;PMS5003;31832;50.746;-2.716;2024-03-08T14:56:29;32;27;
46094;PMS5003;31832;50.746;-2.716;2024-03-08T14:58:54;28;24;
46094;PMS5003;31832;50.746;-2.716;2024-03-08T15:01:20;26;23;
46094;PMS5003;31832;50.746;-2.716;2024-03-08T15:03:46;26;24;
46094;PMS5003;31832;50.746;-2.716;2024-03-08T15:06:11;30;26;
46094;PMS5003;31832;50.746;-2.716;2024-03-08T15:08:37;29;24;
46094;PMS5003;31832;50.746;-2.716;2024-03-08T15:11:03;31;24;
46094;PMS5003;31832;50.746;-2.716;2024-03-08T15:13:28;27;21;
46094;PMS5003;31832;50.746;-2.716;2024-03-08T15:15:53;33;29;
46094;PMS5003;31832;50.746;-2.716;2024-03-08T15:18:19;27;27;
46094;PMS5003;31832;50.746;-2.716;2024-03-08T15:20:44;29;29;
46094;PMS5003;31832;50.746;-2.716;2024-03-08T15:23:10;29;26;
46094;PMS5003;31832;50.746;-2.716;2024-03-08T15:25:35;28;24;
46094;PMS5003;31832;50.746;-2.716;2024-03-08T15:28:01;34;28;
46094;PMS5003;31832;50.746;-2.716;2024-03-08T15:30:26;29;26;
46094;PMS5003;31832;50.746;-2.716;2024-03-08T15:32:52;30;27;
46094;PMS5003;31832;50.746;-2.716;2024-03-08T15:35:17;27;27;
46094;PMS5003;31832;50.746;-2.716;2024-03-08T15:37:42;35;31;
46094;PMS5003;31832;50.746;-2.716;2024-03-08T15:40:09;36;34;
46094;PMS5003;31832;50.746;-2.716;2024-03-08T15:42:33;36;30;
46094;PMS5003;31832;50.746;-2.716;2024-03-08T15:44:59;37;30;
46094;PMS5003;31832;50.746;-2.716;2024-03-08T15:47:25;37;34;
46094;PMS5003;31832;50.746;-2.716;2024-03-08T15:49:50;30;27;
46094;PMS5003;31832;50.746;-2.716;2024-03-08T15:52:16;30;29;
46094;PMS5003;31832;50.746;-2.716;2024-03-08T15:54:42;32;27;